Jerico, Iowa
Current Conditions -  °F | °C
As of 1:35 AM on Saturday 29 Nov 2014 (Local Time) from KCCY Reporting Station
Haze Haze  
Wind Chill: 18°   Ceiling: 300
Heat Index: 28°   Visibility: 4mi
Dew Point: 27°   Wind: 12mph
Humidity: 93%   Direction: 130°SE
Pressure: 29.63"   Gusts: NA
Location:  43.0559°N, 92.3113°W
Report Text: KCCY 290735Z AUTO 13010KT 4SM BR OVC003 M02/M03 A2963 RMK AO2
Loading
Personal Weather Stations






























Interactive Weather Map New forecast layout! Learn more

10-Day Weather Forecast

Advertisements
Track Severe Weather on mobile